Time;durP1;ratioP1;P1;durP2;ratioP2;P2;SDS_P1;SDS_P2;PMS_P1;PMS_P2;Temp;Humidity;BMP_temperature;BMP_pressure;BME280_temperature;BME280_humidity;BME280_pressure;Samples;Min_cycle;Max_cycle;Signal;HPM_P1;HPM_P2
2022/08/31 00:05:10;;;;;;;0.00;0.00;;;16.40;96.90;;;;;;4896358;29;20458;-85
2022/08/31 00:07:37;;;;;;;0.00;0.00;;;16.50;96.80;;;;;;4898806;29;20052;-84
2022/08/31 00:10:17;;;;;;;0.00;0.00;;;16.50;96.40;;;;;;4896388;29;20116;-84
2022/08/31 00:12:46;;;;;;;0.00;0.00;;;16.50;96.60;;;;;;4894052;29;20047;-82
2022/08/31 00:15:15;;;;;;;0.00;0.00;;;16.50;96.70;;;;;;4889332;29;20048;-83
2022/08/31 00:17:44;;;;;;;0.03;0.03;;;16.50;96.80;;;;;;4896422;29;20052;-85
2022/08/31 00:20:13;;;;;;;;;;;16.30;96.60;;;;;;4898858;29;20119;-84
2022/08/31 00:22:58;;;;;;;0.00;0.00;;;17.70;97.00;;;;;;4891078;29;20308;-86
2022/08/31 00:25:25;;;;;;;0.00;0.00;;;16.20;96.80;;;;;;4895952;29;20491;-84
2022/08/31 00:27:54;;;;;;;0.00;0.00;;;16.20;96.80;;;;;;4897466;29;20107;-83
2022/08/31 00:30:22;;;;;;;0.00;0.00;;;;;;;;;;4892491;29;20048;-82
2022/08/31 00:32:50;;;;;;;0.00;0.00;;;16.20;96.70;;;;;;4894953;29;20315;-81
2022/08/31 00:35:18;;;;;;;0.00;0.00;;;16.10;97.10;;;;;;4898983;29;20048;-83
2022/08/31 00:37:44;;;;;;;0.00;0.00;;;16.10;96.80;;;;;;4894839;29;20048;-84
2022/08/31 00:40:12;;;;;;;0.00;0.00;;;16.10;97.00;;;;;;4897908;29;20052;-84
2022/08/31 00:42:39;;;;;;;0.00;0.00;;;16.20;97.10;;;;;;4910697;29;20149;-83
2022/08/31 00:45:07;;;;;;;0.00;0.00;;;16.20;96.80;;;;;;4898611;29;20056;-83
2022/08/31 00:47:35;;;;;;;0.00;0.00;;;16.10;97.20;;;;;;4898502;29;20085;-82
2022/08/31 00:50:06;;;;;;;0.00;0.00;;;16.00;97.00;;;;;;4897317;29;20493;-82
2022/08/31 00:52:36;;;;;;;0.00;0.00;;;16.00;97.20;;;;;;4894734;29;20032;-83
2022/08/31 00:55:08;;;;;;;0.00;0.00;;;16.10;97.30;;;;;;4893871;29;20052;-82
2022/08/31 00:57:39;;;;;;;0.00;0.00;;;16.10;97.40;;;;;;4904167;29;20213;-84
2022/08/31 01:00:11;;;;;;;0.00;0.00;;;16.10;97.60;;;;;;4894330;29;20052;-82
2022/08/31 01:02:38;;;;;;;0.00;0.00;;;16.10;97.70;;;;;;4897429;29;20049;-84
2022/08/31 01:05:08;;;;;;;0.00;0.00;;;16.10;97.90;;;;;;4898060;29;20512;-83
2022/08/31 01:07:35;;;;;;;0.00;0.00;;;16.10;97.70;;;;;;4894981;29;20346;-82
2022/08/31 01:10:03;;;;;;;0.00;0.00;;;16.00;97.30;;;;;;4899529;29;20045;-83
2022/08/31 01:12:30;;;;;;;0.00;0.00;;;16.00;97.40;;;;;;4897493;29;20064;-82
2022/08/31 01:15:01;;;;;;;0.00;0.00;;;16.00;97.70;;;;;;4895877;29;20033;-82
2022/08/31 01:17:31;;;;;;;0.00;0.00;;;15.90;97.20;;;;;;4892830;29;20045;-84
2022/08/31 01:20:06;;;;;;;0.10;0.10;;;15.80;97.30;;;;;;4898864;29;20036;-84
2022/08/31 01:22:40;;;;;;;0.00;0.00;;;15.80;97.50;;;;;;4898946;29;20103;-83
2022/08/31 01:25:09;;;;;;;0.00;0.00;;;15.80;97.70;;;;;;4891861;29;20320;-83
2022/08/31 01:27:37;;;;;;;0.00;0.00;;;15.80;98.10;;;;;;4900544;29;20056;-83
2022/08/31 01:30:09;;;;;;;0.00;0.00;;;15.70;98.50;;;;;;4896727;29;20505;-83
2022/08/31 01:32:35;;;;;;;0.00;0.00;;;15.70;98.40;;;;;;4895109;29;20056;-83
2022/08/31 01:35:03;;;;;;;0.00;0.00;;;15.70;98.60;;;;;;4895714;29;20037;-84
2022/08/31 01:37:30;;;;;;;0.10;0.10;;;15.70;98.70;;;;;;4891317;29;20082;-82
2022/08/31 01:39:57;;;;;;;0.00;0.00;;;15.60;98.80;;;;;;4913534;29;20064;-83
2022/08/31 01:42:25;;;;;;;0.00;0.00;;;15.60;98.90;;;;;;4895649;29;20044;-83
2022/08/31 01:45:00;;;;;;;0.00;0.00;;;15.50;99.10;;;;;;4896446;29;20045;-84
2022/08/31 01:47:26;;;;;;;0.08;0.08;;;15.50;98.70;;;;;;4897765;29;20056;-82
2022/08/31 01:49:53;;;;;;;0.00;0.00;;;15.60;98.60;;;;;;4895695;29;20052;-82
2022/08/31 01:52:23;;;;;;;0.00;0.00;;;15.50;98.40;;;;;;4899221;29;20044;-83
2022/08/31 01:54:54;;;;;;;0.00;0.00;;;15.40;98.40;;;;;;4893050;29;20608;-82
2022/08/31 01:57:21;;;;;;;0.10;0.10;;;15.40;98.10;;;;;;4900285;29;20045;-82
2022/08/31 02:00:04;;;;;;;0.00;0.00;;;15.50;98.40;;;;;;4902097;29;20119;-82
2022/08/31 02:02:31;;;;;;;0.00;0.00;;;15.40;98.20;;;;;;4900617;29;20045;-83
2022/08/31 02:04:58;;;;;;;0.00;0.00;;;15.40;98.30;;;;;;4901632;29;20582;-82
2022/08/31 02:07:25;;;;;;;0.00;0.00;;;15.40;98.90;;;;;;4915249;29;20502;-85
2022/08/31 02:09:53;;;;;;;0.00;0.00;;;15.40;98.90;;;;;;4901449;29;20052;-85
2022/08/31 02:12:20;;;;;;;0.00;0.00;;;15.30;98.90;;;;;;4900285;29;20045;-84
2022/08/31 02:14:46;;;;;;;0.00;0.00;;;15.30;99.30;;;;;;4898607;29;20536;-83
2022/08/31 02:17:15;;;;;;;0.00;0.00;;;15.30;99.20;;;;;;4899571;29;20059;-83
2022/08/31 02:19:42;;;;;;;0.00;0.00;;;15.30;99.50;;;;;;4900416;29;20060;-82
2022/08/31 02:22:09;;;;;;;0.00;0.00;;;15.20;99.50;;;;;;4898140;29;20565;-83
2022/08/31 02:24:35;;;;;;;0.00;0.00;;;15.20;99.50;;;;;;4900212;29;20045;-82
2022/08/31 02:27:03;;;;;;;0.00;0.00;;;15.20;99.20;;;;;;4899530;29;20116;-84
2022/08/31 02:29:29;;;;;;;0.00;0.00;;;15.20;99.20;;;;;;4897687;29;21761;-83
2022/08/31 02:31:57;;;;;;;0.00;0.00;;;15.10;99.40;;;;;;4897156;29;20547;-85
2022/08/31 02:34:25;;;;;;;0.00;0.00;;;15.10;99.50;;;;;;4897365;29;20040;-83
2022/08/31 02:36:52;;;;;;;0.00;0.00;;;15.10;99.30;;;;;;4902030;29;20049;-83
2022/08/31 02:39:19;;;;;;;0.00;0.00;;;15.00;99.50;;;;;;4898650;29;20113;-84
2022/08/31 02:41:46;;;;;;;0.00;0.00;;;14.90;98.90;;;;;;4895786;29;20052;-84
2022/08/31 02:44:13;;;;;;;0.00;0.00;;;14.90;99.10;;;;;;4914948;29;20053;-82
2022/08/31 02:46:40;;;;;;;0.00;0.00;;;;;;;;;;4898702;29;20501;-83
2022/08/31 02:49:07;;;;;;;0.00;0.00;;;15.00;98.70;;;;;;4901890;29;20599;-82
2022/08/31 02:51:38;;;;;;;0.00;0.00;;;15.00;98.90;;;;;;4898666;29;20048;-81
2022/08/31 02:54:05;;;;;;;0.00;0.00;;;15.00;98.90;;;;;;4901347;29;20048;-83
2022/08/31 02:56:32;;;;;;;0.00;0.00;;;14.90;98.70;;;;;;4898967;29;20112;-82
2022/08/31 02:58:59;;;;;;;0.00;0.00;;;14.80;99.10;;;;;;4897771;29;20075;-82
2022/08/31 03:03:54;;;;;;;0.00;0.00;;;14.70;99.30;;;;;;4880179;29;20068;-81
2022/08/31 03:06:22;;;;;;;0.00;0.00;;;14.70;99.40;;;;;;4893715;29;20052;-81
2022/08/31 03:08:50;;;;;;;0.00;0.00;;;14.70;99.40;;;;;;4887232;29;20049;-81
2022/08/31 03:11:18;;;;;;;0.00;0.00;;;14.70;99.30;;;;;;4879313;29;20045;-80
2022/08/31 03:13:45;;;;;;;0.00;0.00;;;14.80;99.10;;;;;;4873729;29;20386;-81
2022/08/31 03:16:13;;;;;;;0.00;0.00;;;14.70;99.30;;;;;;4873778;29;20502;-81
2022/08/31 03:18:41;;;;;;;0.00;0.00;;;14.60;99.50;;;;;;4878795;29;20088;-80
2022/08/31 03:21:07;;;;;;;0.00;0.00;;;14.60;99.80;;;;;;4881015;29;20045;-80
2022/08/31 03:23:35;;;;;;;0.00;0.00;;;14.60;99.60;;;;;;4883957;29;20049;-81
2022/08/31 03:26:04;;;;;;;0.00;0.00;;;14.60;99.60;;;;;;4880114;29;20093;-81
2022/08/31 03:28:31;;;;;;;0.00;0.00;;;14.60;99.70;;;;;;4892826;29;20132;-80
2022/08/31 03:30:58;;;;;;;0.00;0.00;;;14.60;99.70;;;;;;4874424;29;20040;-81
2022/08/31 03:33:25;;;;;;;0.00;0.00;;;14.50;99.90;;;;;;4875260;29;20045;-80
2022/08/31 03:35:52;;;;;;;0.00;0.00;;;14.50;99.90;;;;;;4872953;29;20340;-81
2022/08/31 03:38:19;;;;;;;0.00;0.00;;;14.40;99.90;;;;;;4875740;29;20061;-80
2022/08/31 03:40:46;;;;;;;0.00;0.00;;;14.40;99.90;;;;;;4875867;29;20131;-81
2022/08/31 03:43:14;;;;;;;0.00;0.00;;;14.50;99.90;;;;;;4867657;29;20041;-81
2022/08/31 03:45:42;;;;;;;0.00;0.00;;;14.50;99.90;;;;;;4889781;29;20074;-81
2022/08/31 03:48:10;;;;;;;0.00;0.00;;;14.50;99.90;;;;;;4877397;29;20129;-80
2022/08/31 03:50:39;;;;;;;0.00;0.00;;;14.50;99.90;;;;;;4876741;29;20044;-80
2022/08/31 03:53:07;;;;;;;0.00;0.00;;;14.50;99.90;;;;;;4877540;29;20041;-81
2022/08/31 03:55:38;;;;;;;0.00;0.00;;;14.50;99.90;;;;;;4873751;29;20054;-81
2022/08/31 03:58:07;;;;;;;0.00;0.00;;;14.50;99.90;;;;;;4874750;29;20049;-81
2022/08/31 04:00:36;;;;;;;0.00;0.00;;;14.20;99.90;;;;;;4869458;29;20041;-80
2022/08/31 04:03:03;;;;;;;0.00;0.00;;;14.10;99.90;;;;;;4875488;29;20459;-81
2022/08/31 04:05:32;;;;;;;0.00;0.00;;;14.00;99.90;;;;;;4869735;29;20041;-81
2022/08/31 04:07:59;;;;;;;0.00;0.00;;;14.00;99.90;;;;;;4876982;29;20044;-81
2022/08/31 04:10:26;;;;;;;0.00;0.00;;;14.10;99.90;;;;;;4881789;29;20044;-80
2022/08/31 04:12:53;;;;;;;0.00;0.00;;;14.20;99.90;;;;;;4878027;29;20429;-80
2022/08/31 04:15:21;;;;;;;0.00;0.00;;;14.20;99.90;;;;;;4870201;29;20049;-81
2022/08/31 04:17:49;;;;;;;0.00;0.00;;;14.20;99.90;;;;;;4878003;29;20051;-81
2022/08/31 04:20:23;;;;;;;0.00;0.00;;;14.20;99.90;;;;;;4880128;29;20096;-81
2022/08/31 04:22:55;;;;;;;0.00;0.00;;;14.20;99.90;;;;;;4872339;29;20058;-81
2022/08/31 04:25:22;;;;;;;0.00;0.00;;;14.10;99.90;;;;;;4874393;29;20097;-80
2022/08/31 04:27:49;;;;;;;0.00;0.00;;;14.20;99.90;;;;;;4870842;29;20060;-80
2022/08/31 04:30:17;;;;;;;0.00;0.00;;;14.10;99.90;;;;;;4888778;29;20049;-80
2022/08/31 04:32:44;;;;;;;0.00;0.00;;;14.20;99.90;;;;;;4870852;29;20452;-81
2022/08/31 04:35:12;;;;;;;0.00;0.00;;;14.30;99.90;;;;;;4873698;29;20065;-80
2022/08/31 04:37:40;;;;;;;0.00;0.00;;;14.30;99.90;;;;;;4875137;29;20061;-81
2022/08/31 04:40:18;;;;;;;0.00;0.00;;;14.30;99.90;;;;;;4872755;29;20052;-80
2022/08/31 04:42:47;;;;;;;0.00;0.00;;;14.40;99.90;;;;;;4871402;29;20120;-81
2022/08/31 04:45:15;;;;;;;0.00;0.00;;;14.50;99.90;;;;;;4875675;29;20043;-81
2022/08/31 04:47:42;;;;;;;0.00;0.00;;;14.50;99.90;;;;;;4871923;29;20553;-81
2022/08/31 04:50:10;;;;;;;0.00;0.00;;;14.50;99.90;;;;;;4868801;29;20049;-81
2022/08/31 04:52:41;;;;;;;0.00;0.00;;;14.40;99.90;;;;;;4870487;29;20602;-80
2022/08/31 04:55:10;;;;;;;0.00;0.00;;;14.40;99.90;;;;;;4874781;29;20047;-81
2022/08/31 04:57:39;;;;;;;0.00;0.00;;;14.40;99.90;;;;;;4870456;29;20053;-81
2022/08/31 05:00:08;;;;;;;0.00;0.00;;;14.50;99.90;;;;;;4872798;29;20104;-80
2022/08/31 05:02:37;;;;;;;0.00;0.00;;;14.50;99.90;;;;;;4883132;29;20057;-81
2022/08/31 05:05:05;;;;;;;0.00;0.00;;;14.40;99.90;;;;;;4871340;29;20443;-81
2022/08/31 05:07:32;;;;;;;0.00;0.00;;;14.30;99.90;;;;;;4872569;29;20057;-80
2022/08/31 05:10:00;;;;;;;0.00;0.00;;;14.20;99.90;;;;;;4874890;29;20045;-81
2022/08/31 05:12:26;;;;;;;0.00;0.00;;;14.30;99.90;;;;;;4876088;29;20387;-80
2022/08/31 05:14:53;;;;;;;0.00;0.00;;;14.30;99.90;;;;;;4877151;29;20510;-81
2022/08/31 05:17:20;;;;;;;0.00;0.00;;;14.30;99.90;;;;;;4875275;29;20466;-81
2022/08/31 05:19:47;;;;;;;0.00;0.00;;;14.20;99.90;;;;;;4877655;29;20053;-81
2022/08/31 05:22:14;;;;;;;0.00;0.00;;;14.10;99.90;;;;;;4870096;29;20109;-81
2022/08/31 05:24:41;;;;;;;0.00;0.00;;;14.20;99.90;;;;;;4870931;29;20049;-80
2022/08/31 05:27:09;;;;;;;0.00;0.00;;;14.10;99.90;;;;;;4875419;29;20050;-80
2022/08/31 05:29:36;;;;;;;0.00;0.00;;;14.10;99.90;;;;;;4883935;29;20513;-81
2022/08/31 05:32:03;;;;;;;0.00;0.00;;;14.30;99.90;;;;;;4888913;29;20546;-81
2022/08/31 05:34:30;;;;;;;0.00;0.00;;;14.30;99.90;;;;;;4873007;29;20037;-80
2022/08/31 05:36:57;;;;;;;0.00;0.00;;;14.10;99.90;;;;;;4879030;29;20105;-80
2022/08/31 05:39:25;;;;;;;0.00;0.00;;;14.20;99.90;;;;;;4870990;29;20045;-81
2022/08/31 05:41:53;;;;;;;0.00;0.00;;;14.20;99.90;;;;;;4882501;29;20049;-80
2022/08/31 05:44:21;;;;;;;0.00;0.00;;;14.20;99.90;;;;;;4883188;29;20048;-81
2022/08/31 05:46:55;;;;;;;0.00;0.00;;;14.30;99.90;;;;;;4872371;29;20459;-80
2022/08/31 05:49:29;;;;;;;0.00;0.00;;;14.10;99.90;;;;;;4875225;29;20426;-81
2022/08/31 05:51:58;;;;;;;0.00;0.00;;;14.10;99.90;;;;;;4878035;29;20056;-80
2022/08/31 05:54:25;;;;;;;0.00;0.00;;;14.20;99.90;;;;;;4868138;29;20040;-80
2022/08/31 05:56:52;;;;;;;0.00;0.00;;;14.20;99.90;;;;;;4880718;29;20060;-80
2022/08/31 05:59:19;;;;;;;0.00;0.00;;;14.30;99.90;;;;;;4876807;29;20156;-80
2022/08/31 06:01:47;;;;;;;0.00;0.00;;;14.30;99.90;;;;;;4876111;29;20048;-80
2022/08/31 06:04:14;;;;;;;0.00;0.00;;;14.40;99.90;;;;;;4869528;29;20043;-80
2022/08/31 06:06:41;;;;;;;0.00;0.00;;;14.40;99.90;;;;;;4887402;29;20098;-80
2022/08/31 06:09:08;;;;;;;0.00;0.00;;;14.50;99.90;;;;;;4877652;29;20060;-80
2022/08/31 06:11:37;;;;;;;0.00;0.00;;;14.60;99.90;;;;;;4871616;29;20057;-81
2022/08/31 06:14:04;;;;;;;0.00;0.00;;;14.60;99.90;;;;;;4879023;29;20528;-80
2022/08/31 06:16:32;;;;;;;0.00;0.00;;;14.60;99.90;;;;;;4871601;29;20097;-80
2022/08/31 06:19:05;;;;;;;0.00;0.00;;;14.60;99.90;;;;;;4876235;29;20424;-81
2022/08/31 06:21:35;;;;;;;0.00;0.00;;;14.70;99.90;;;;;;4877109;29;20045;-80
2022/08/31 06:24:04;;;;;;;0.00;0.00;;;14.70;99.90;;;;;;4892965;29;20624;-80
2022/08/31 06:26:33;;;;;;;0.00;0.00;;;14.70;99.90;;;;;;4879562;29;20458;-81
2022/08/31 06:29:03;;;;;;;0.00;0.00;;;14.70;99.90;;;;;;4884413;29;20092;-81
2022/08/31 06:31:32;;;;;;;0.00;0.00;;;14.80;99.90;;;;;;4877876;29;20463;-80
2022/08/31 06:34:01;;;;;;;0.00;0.00;;;14.90;99.90;;;;;;4874846;29;20050;-81
2022/08/31 06:36:30;;;;;;;0.00;0.00;;;15.00;99.90;;;;;;4877950;29;20045;-80
2022/08/31 06:38:59;;;;;;;0.00;0.00;;;15.10;99.90;;;;;;4870440;29;20048;-80
2022/08/31 06:41:30;;;;;;;0.00;0.00;;;15.20;99.90;;;;;;4850023;29;20525;-81
2022/08/31 06:44:04;;;;;;;0.00;0.00;;;15.20;99.90;;;;;;4880923;29;20048;-80
2022/08/31 06:46:33;;;;;;;0.00;0.00;;;15.20;99.90;;;;;;4876251;29;20077;-80
2022/08/31 06:49:01;;;;;;;0.00;0.00;;;15.30;99.90;;;;;;4877663;29;20045;-81
2022/08/31 06:51:35;;;;;;;0.00;0.00;;;15.50;99.90;;;;;;4874933;29;20462;-81
2022/08/31 06:54:02;;;;;;;0.00;0.00;;;15.50;99.90;;;;;;4870022;29;20052;-81
2022/08/31 06:56:49;;;;;;;0.00;0.00;;;15.70;99.90;;;;;;4871591;29;20053;-80
2022/08/31 06:59:16;;;;;;;0.00;0.00;;;15.80;99.90;;;;;;4873983;29;20075;-80
2022/08/31 07:01:42;;;;;;;0.00;0.00;;;15.90;99.90;;;;;;4886764;29;20048;-80
2022/08/31 07:04:11;;;;;;;0.00;0.00;;;16.00;99.90;;;;;;4872440;29;20347;-80
2022/08/31 07:06:40;;;;;;;0.10;0.10;;;16.10;99.90;;;;;;4873158;29;20096;-80
2022/08/31 07:09:09;;;;;;;0.05;0.05;;;16.30;99.90;;;;;;4877743;29;20045;-80
2022/08/31 07:11:37;;;;;;;0.00;0.00;;;16.40;99.90;;;;;;4872186;29;20104;-81
2022/08/31 07:14:12;;;;;;;0.10;0.10;;;16.30;99.90;;;;;;4875262;29;20041;-80
2022/08/31 07:16:39;;;;;;;0.00;0.00;;;16.20;99.90;;;;;;4874450;29;20053;-80
2022/08/31 07:19:07;;;;;;;0.00;0.00;;;16.40;99.90;;;;;;4878972;29;20082;-80
2022/08/31 07:21:39;;;;;;;0.00;0.00;;;16.60;99.90;;;;;;4884570;29;20391;-80
2022/08/31 07:24:08;;;;;;;0.00;0.00;;;16.70;99.90;;;;;;4873644;29;20045;-81
2022/08/31 07:26:38;;;;;;;0.00;0.00;;;16.80;99.90;;;;;;4872088;29;20053;-80
2022/08/31 07:29:06;;;;;;;;;;;16.90;99.90;;;;;;4872657;29;20053;-80
2022/08/31 07:31:45;;;;;;;0.00;0.00;;;17.10;99.90;;;;;;4871702;29;20417;-81
2022/08/31 07:34:13;;;;;;;0.00;0.00;;;17.10;99.90;;;;;;4874429;29;20059;-81
2022/08/31 07:42:17;;;;;;;0.00;0.00;;;17.40;99.90;;;;;;4878024;29;20060;-81
2022/08/31 07:44:47;;;;;;;0.00;0.00;;;17.50;99.90;;;;;;4880057;29;20037;-80
2022/08/31 07:47:19;;;;;;;0.00;0.00;;;17.60;99.70;;;;;;4880903;29;20526;-81
2022/08/31 07:49:50;;;;;;;0.00;0.00;;;17.80;99.50;;;;;;4878541;29;20578;-81
2022/08/31 07:52:25;;;;;;;0.00;0.00;;;17.80;99.30;;;;;;4886469;29;20093;-81
2022/08/31 07:54:54;;;;;;;0.00;0.00;;;17.70;99.40;;;;;;4885102;29;20498;-81
2022/08/31 07:57:24;;;;;;;0.00;0.00;;;17.80;99.10;;;;;;4890743;29;20044;-81
2022/08/31 07:59:53;;;;;;;0.00;0.00;;;17.90;98.90;;;;;;4885876;29;20100;-81
2022/08/31 08:02:22;;;;;;;0.00;0.00;;;18.00;99.10;;;;;;4880816;29;20077;-81
2022/08/31 08:04:49;;;;;;;0.00;0.00;;;18.10;99.10;;;;;;4880424;29;20052;-80
2022/08/31 08:07:18;;;;;;;0.00;0.00;;;18.10;98.90;;;;;;4881920;29;20045;-80
2022/08/31 08:09:47;;;;;;;0.00;0.00;;;18.20;98.60;;;;;;4876228;29;20049;-80
2022/08/31 08:12:14;;;;;;;0.00;0.00;;;18.30;98.40;;;;;;4892918;29;20040;-80
2022/08/31 08:14:40;;;;;;;0.00;0.00;;;18.40;98.10;;;;;;4876623;29;20052;-80
2022/08/31 08:17:07;;;;;;;0.00;0.00;;;18.30;97.80;;;;;;4880309;29;20049;-80
2022/08/31 08:19:34;;;;;;;0.00;0.00;;;18.20;98.20;;;;;;4872362;29;20051;-79
2022/08/31 08:22:02;;;;;;;0.00;0.00;;;18.20;98.00;;;;;;4878091;29;20049;-80
2022/08/31 08:24:31;;;;;;;0.10;0.10;;;18.20;98.10;;;;;;4869479;29;20064;-80
2022/08/31 08:26:58;;;;;;;0.00;0.00;;;18.40;98.10;;;;;;4874243;29;20041;-80
2022/08/31 08:29:28;;;;;;;0.00;0.00;;;18.50;98.00;;;;;;4871786;29;20053;-80
2022/08/31 08:31:59;;;;;;;0.00;0.00;;;18.50;97.60;;;;;;4867420;29;20056;-79
2022/08/31 08:34:26;;;;;;;0.00;0.00;;;18.50;97.50;;;;;;4872533;29;20071;-80
2022/08/31 08:36:59;;;;;;;0.00;0.00;;;18.60;97.20;;;;;;4876463;29;20033;-80
2022/08/31 08:39:26;;;;;;;0.00;0.00;;;18.60;97.30;;;;;;4859738;29;20482;-81
2022/08/31 08:41:56;;;;;;;0.00;0.00;;;18.60;97.40;;;;;;4862452;29;20052;-80
2022/08/31 08:44:27;;;;;;;0.00;0.00;;;18.50;97.30;;;;;;4871656;29;20052;-80
2022/08/31 08:46:57;;;;;;;0.00;0.00;;;18.50;97.50;;;;;;4871935;29;20065;-80
2022/08/31 08:49:35;;;;;;;0.00;0.00;;;18.70;97.30;;;;;;4879003;29;20071;-80
2022/08/31 08:52:10;;;;;;;0.00;0.00;;;18.90;97.20;;;;;;4864552;29;20055;-80
2022/08/31 08:54:42;;;;;;;0.00;0.00;;;18.90;96.90;;;;;;4867813;29;20049;-81
2022/08/31 08:57:14;;;;;;;0.00;0.00;;;18.90;97.60;;;;;;4867881;29;20061;-80
2022/08/31 08:59:42;;;;;;;0.00;0.00;;;19.00;97.10;;;;;;4867334;29;20049;-80
2022/08/31 09:02:13;;;;;;;0.00;0.00;;;19.10;97.20;;;;;;4542674;23;10776334;-82
2022/08/31 09:04:58;;;;;;;0.00;0.00;;;19.10;97.10;;;;;;4909815;29;20052;-83
2022/08/31 09:07:41;;;;;;;0.00;0.00;;;19.20;96.90;;;;;;4921067;29;20036;-81
2022/08/31 09:10:16;;;;;;;0.00;0.00;;;18.90;96.80;;;;;;4905787;29;20045;-84
2022/08/31 09:12:53;;;;;;;0.00;0.00;;;18.90;97.20;;;;;;4915012;29;20108;-79
2022/08/31 09:15:37;;;;;;;0.00;0.00;;;19.10;97.10;;;;;;4902166;29;20502;-81
2022/08/31 09:18:18;;;;;;;0.00;0.00;;;19.10;96.70;;;;;;4910425;29;20567;-81
2022/08/31 09:21:04;;;;;;;0.00;0.00;;;19.20;97.00;;;;;;4902328;29;20422;-83
2022/08/31 09:23:36;;;;;;;0.00;0.00;;;19.30;97.40;;;;;;4899387;29;20041;-82
2022/08/31 09:26:03;;;;;;;0.00;0.00;;;19.40;96.80;;;;;;4906711;29;20615;-82
2022/08/31 09:28:37;;;;;;;0.00;0.00;;;19.50;96.90;;;;;;4887968;29;20062;-82
2022/08/31 09:31:04;;;;;;;0.00;0.00;;;19.40;97.00;;;;;;4899629;29;20060;-81
2022/08/31 09:33:34;;;;;;;0.00;0.00;;;19.40;97.00;;;;;;4900725;29;20116;-83
2022/08/31 09:36:14;;;;;;;;;;;19.60;97.00;;;;;;4897325;29;20628;-83
2022/08/31 09:38:45;;;;;;;0.00;0.00;;;19.70;96.60;;;;;;4904023;29;19923;-82
2022/08/31 09:41:30;;;;;;;0.00;0.00;;;19.80;96.40;;;;;;4902089;29;20053;-83
2022/08/31 09:44:21;;;;;;;0.00;0.00;;;19.70;96.40;;;;;;4901536;29;20056;-82
2022/08/31 09:46:50;;;;;;;0.00;0.00;;;19.70;96.40;;;;;;4902066;29;20044;-82
2022/08/31 09:49:20;;;;;;;0.00;0.00;;;19.80;96.60;;;;;;4897377;29;20061;-83
2022/08/31 09:51:48;;;;;;;0.00;0.00;;;19.60;96.30;;;;;;4902440;29;20109;-83
2022/08/31 09:57:12;;;;;;;0.00;0.00;;;19.50;96.90;;;;;;4903364;29;20051;-82
2022/08/31 09:59:43;;;;;;;0.00;0.00;;;19.50;96.80;;;;;;4903783;29;20076;-83
2022/08/31 10:02:27;;;;;;;0.00;0.00;;;19.70;96.90;;;;;;4903411;29;20056;-82
2022/08/31 10:04:57;;;;;;;0.00;0.00;;;19.80;96.80;;;;;;4893136;29;20124;-82
2022/08/31 10:07:36;;;;;;;0.00;0.00;;;19.90;96.40;;;;;;4901213;29;20075;-83
2022/08/31 10:10:04;;;;;;;;;;;19.70;96.70;;;;;;4905426;29;20502;-83
2022/08/31 10:12:40;;;;;;;0.00;0.00;;;19.70;96.90;;;;;;4894595;29;19927;-82
2022/08/31 10:15:16;;;;;;;0.00;0.00;;;19.70;96.80;;;;;;4896629;29;20092;-82
2022/08/31 10:18:01;;;;;;;0.10;0.05;;;19.90;96.90;;;;;;4894047;29;20056;-82
2022/08/31 10:20:38;;;;;;;0.00;0.00;;;20.00;96.60;;;;;;4910339;29;20049;-83
2022/08/31 10:23:26;;;;;;;0.00;0.00;;;20.20;96.20;;;;;;4891861;29;20164;-83
2022/08/31 10:25:58;;;;;;;0.00;0.00;;;20.30;95.60;;;;;;4912541;29;20576;-84
2022/08/31 10:28:30;;;;;;;0.00;0.00;;;20.40;95.80;;;;;;4894613;29;20505;-83
2022/08/31 10:31:02;;;;;;;0.00;0.00;;;20.40;95.80;;;;;;4901924;29;20080;-83
2022/08/31 10:35:04;;;;;;;0.00;0.00;;;20.50;95.10;;;;;;4913081;29;20131;-83
2022/08/31 10:36:24;;;;;;;0.00;0.00;;;20.70;95.80;;;;;;4898263;29;20044;-84
2022/08/31 10:38:53;;;;;;;0.00;0.00;;;20.60;94.60;;;;;;4900173;29;20551;-84
2022/08/31 10:41:26;;;;;;;0.00;0.00;;;20.50;94.70;;;;;;4902223;29;20565;-82
2022/08/31 10:44:01;;;;;;;0.00;0.00;;;20.50;94.50;;;;;;4894191;29;20041;-83
2022/08/31 10:46:34;;;;;;;0.00;0.00;;;20.50;94.30;;;;;;4911355;29;20049;-81
2022/08/31 10:49:03;;;;;;;0.00;0.00;;;20.50;94.70;;;;;;4894670;29;20037;-82
2022/08/31 10:51:39;;;;;;;0.00;0.00;;;20.60;94.40;;;;;;4899534;29;20045;-83
2022/08/31 10:54:23;;;;;;;0.00;0.00;;;20.80;94.60;;;;;;4895244;29;20071;-82
2022/08/31 10:57:00;;;;;;;0.00;0.00;;;21.00;94.40;;;;;;4898633;29;20055;-83
2022/08/31 10:59:34;;;;;;;0.00;0.00;;;21.10;93.80;;;;;;4898304;29;20048;-83
2022/08/31 11:02:30;;;;;;;0.00;0.00;;;21.30;93.60;;;;;;4894709;29;20084;-83
2022/08/31 11:05:29;;;;;;;0.00;0.00;;;21.40;93.70;;;;;;4894484;29;20059;-84
2022/08/31 11:08:06;;;;;;;0.00;0.00;;;21.40;93.30;;;;;;4904097;29;20548;-82
2022/08/31 11:10:44;;;;;;;0.00;0.00;;;21.60;93.10;;;;;;4903930;29;20044;-82
2022/08/31 11:13:25;;;;;;;0.00;0.00;;;21.70;92.30;;;;;;4897288;29;20516;-82
2022/08/31 11:16:05;;;;;;;0.00;0.00;;;21.60;91.90;;;;;;4900905;29;20774;-83
2022/08/31 11:18:55;;;;;;;0.00;0.00;;;21.50;92.60;;;;;;4895757;29;20155;-82
2022/08/31 11:21:37;;;;;;;0.00;0.00;;;21.70;92.50;;;;;;4898590;29;20057;-82
2022/08/31 11:24:27;;;;;;;0.00;0.00;;;22.00;92.50;;;;;;4895326;29;20494;-82
2022/08/31 11:27:04;;;;;;;0.00;0.00;;;22.10;91.70;;;;;;4895397;29;20494;-81
2022/08/31 11:29:42;;;;;;;0.00;0.00;;;22.10;91.60;;;;;;4891395;29;20125;-80
2022/08/31 11:32:18;;;;;;;0.00;0.00;;;22.10;91.60;;;;;;4881148;29;20618;-79
2022/08/31 11:34:52;;;;;;;0.00;0.00;;;22.00;91.60;;;;;;4894921;29;20140;-82
2022/08/31 11:37:51;;;;;;;0.00;0.00;;;21.90;91.10;;;;;;4880331;29;20056;-82
2022/08/31 11:40:40;;;;;;;;;;;22.00;91.20;;;;;;4897577;29;20560;-82
2022/08/31 11:43:13;;;;;;;0.00;0.00;;;22.20;91.50;;;;;;4897312;29;19927;-83
2022/08/31 11:45:41;;;;;;;0.00;0.00;;;22.30;90.80;;;;;;4915796;29;20055;-83
2022/08/31 11:48:48;;;;;;;0.00;0.00;;;22.30;90.80;;;;;;4900890;29;20053;-84
2022/08/31 11:51:31;;;;;;;0.00;0.00;;;22.20;90.30;;;;;;4893759;29;20052;-83
2022/08/31 11:54:09;;;;;;;;;;;22.00;91.00;;;;;;4896065;29;20045;-84
2022/08/31 11:56:38;;;;;;;0.00;0.00;;;22.00;90.60;;;;;;4899240;29;19930;-82
2022/08/31 11:59:21;;;;;;;0.00;0.00;;;22.00;90.20;;;;;;4900067;29;20056;-83
2022/08/31 12:01:48;;;;;;;0.00;0.00;;;21.80;89.50;;;;;;4899854;29;20167;-83
2022/08/31 12:04:56;;;;;;;0.00;0.00;;;21.90;90.00;;;;;;4906846;29;20070;-83
2022/08/31 12:07:28;;;;;;;0.00;0.00;;;21.70;90.00;;;;;;4897914;29;20052;-83
2022/08/31 12:10:22;;;;;;;0.00;0.00;;;21.90;89.20;;;;;;4895022;29;20521;-81
2022/08/31 12:13:21;;;;;;;0.00;0.00;;;22.00;88.00;;;;;;4889431;29;20056;-81
2022/08/31 12:16:17;;;;;;;0.00;0.00;;;21.80;88.10;;;;;;4896377;29;20060;-83
2022/08/31 12:19:05;;;;;;;0.00;0.00;;;21.90;86.90;;;;;;4885055;29;20049;-83
2022/08/31 12:24:41;;;;;;;0.00;0.00;;;21.80;86.80;;;;;;4893156;29;20060;-81
2022/08/31 12:27:29;;;;;;;0.00;0.00;;;24.00;85.20;;;;;;4902742;29;20052;-82
2022/08/31 12:30:13;;;;;;;0.00;0.00;;;21.80;84.50;;;;;;4894058;29;20048;-82
2022/08/31 12:32:43;;;;;;;0.00;0.00;;;21.70;83.70;;;;;;4892400;29;20366;-81
2022/08/31 12:35:15;;;;;;;0.00;0.00;;;21.80;84.20;;;;;;4897969;29;20045;-81
2022/08/31 12:37:43;;;;;;;0.00;0.00;;;21.90;84.80;;;;;;4892666;29;20048;-83
2022/08/31 12:40:19;;;;;;;0.00;0.00;;;22.00;83.80;;;;;;4894801;29;20049;-83
2022/08/31 12:43:09;;;;;;;0.00;0.00;;;22.00;84.40;;;;;;4901552;29;20048;-80
2022/08/31 12:46:12;;;;;;;0.00;0.00;;;22.10;83.50;;;;;;4888295;29;20084;-81
2022/08/31 12:48:53;;;;;;;0.00;0.00;;;22.10;84.60;;;;;;4888262;29;20064;-81
2022/08/31 12:51:34;;;;;;;0.00;0.00;;;22.40;85.00;;;;;;4893428;29;20183;-82
2022/08/31 12:54:17;;;;;;;0.00;0.00;;;22.30;83.10;;;;;;4892547;29;20045;-82
2022/08/31 12:56:52;;;;;;;0.00;0.00;;;22.20;81.90;;;;;;4909610;29;20049;-81
2022/08/31 12:59:33;;;;;;;0.00;0.00;;;22.20;82.30;;;;;;4894003;29;20104;-82
2022/08/31 13:02:21;;;;;;;0.00;0.00;;;22.40;81.60;;;;;;4894224;29;20480;-81
2022/08/31 13:04:48;;;;;;;0.00;0.00;;;23.50;81.30;;;;;;4891670;29;20549;-83
2022/08/31 13:07:21;;;;;;;0.00;0.00;;;22.20;81.20;;;;;;4895578;29;20045;-82
2022/08/31 13:10:02;;;;;;;0.00;0.00;;;22.20;81.00;;;;;;4902554;29;20501;-82
2022/08/31 13:12:30;;;;;;;0.00;0.00;;;22.30;81.20;;;;;;4907948;29;20048;-82
2022/08/31 13:14:57;;;;;;;0.00;0.00;;;22.20;79.50;;;;;;4894130;29;20052;-82
2022/08/31 13:17:24;;;;;;;0.00;0.00;;;22.20;79.10;;;;;;4898290;29;20041;-81
2022/08/31 13:19:53;;;;;;;0.00;0.00;;;22.20;79.70;;;;;;4895723;29;20077;-81
2022/08/31 13:22:28;;;;;;;0.00;0.00;;;22.20;80.10;;;;;;4888398;29;20612;-81
2022/08/31 13:25:09;;;;;;;0.00;0.00;;;22.20;80.60;;;;;;4911858;29;20085;-83
2022/08/31 13:27:45;;;;;;;0.00;0.00;;;22.20;80.70;;;;;;4896470;29;20387;-83
2022/08/31 13:30:18;;;;;;;0.00;0.00;;;22.30;79.50;;;;;;4897727;29;20339;-80